Résultats

La Cabro d'Or - 5 km. Édition 2014.

5 Km
19/10/2014 à 00:00:00 - ()
349 arrivant(e)s.


 
Les autres classements de cet évènement




Place▲ Temps Dossard Nom Prenom Categ #Categ Sexe #Sexe Club Vit Moy Diplôme Partager
1 00:15:54 685 BENAYOUN ERIC SEM 1 M 1 CEF MARATHONIEN/OM 18.87
2 00:16:12 746 KALIPAT KHALID SEM 2 M 2 SCO ST MARGUERITTES 18.52
3 00:16:15 748 KHLIFAT ELHOUSSIN SEM 3 M 3 SCO ST MARGUERITTES 18.46
4 00:16:22 729 LAIGLE MARTIAL SEM 4 M 4 AC MIRAMAS 18.33
5 00:16:39 1127 LE-BORGNE NICOLAS SEM 5 M 5 CEF MARATHONIEN 9.9
6 00:16:40 735 URSENBACH JEAN JUM 1 M 6 AIX ATHLE PROVENCE 18.00
7 00:16:48 806 CORTIAL DAMIEN CAM 1 M 7 TRIATHL'AIX 17.86
8 00:16:54 741 ALLARD LENI CAM 2 M 8 AIX ATHLE 17.75
9 00:16:59 750 GICHURU SAMUEL SEM 6 M 9 OCC 17.66
10 00:17:03 955 SPITALE FABIEN V1M 1 M 10 CEF MARATHONIEN 17.60
11 00:17:08 906 MAUER BENJAMIN CAM 3 M 11 AIX ATHLETISME PROVENCE 17.51
12 00:17:12 698 BITTAU GILLES V1M 2 M 12 CEF MARATHONIEN 17.44
13 00:17:14 761 AYALA SERGE V1M 3 M 13 USCSEPTeMES 17.41
14 00:17:18 843 GARCIA-ROTA LUCAS CAM 4 M 14 VITROLLES SPORTS ATHLETISME 17.34
15 00:17:21 935 RIGHETTI STEPHANE SEM 7 M 15 17.29
16 00:17:39 731 PAGANINI MATHIEU SEM 8 M 16 VITROLLES TRIALTHLON 17.00
17 00:17:44 722 VEDACHELLAM PARSOORAMEN V1M 4 M 17 MASSILIA MARATHON 16.92
18 00:17:48 908 MENC-MOLINA COLIN SEM 9 M 18 AVC AIX 16.85
19 00:17:51 841 GAGNEUX THIBAULT ESM 1 M 19 ATSCAF 16.81
20 00:17:56 961 TEISSIER REMI SEM 10 M 20 AS BERRE 16.73
21 00:18:04 987 ZUNINO YVES V2M 1 M 21 ATSCAF ST VICTORET 16.61
22 00:18:14 840 FRAIZ CHRISTOPHE V1M 5 M 22 AIRBUS HELICOPTERE 16.45
23 00:18:20 733 BOURDELAS GILLES SEM 11 M 23 MJC PLAN DE CUQUES 16.36
24 00:18:21 1030 CILIRIE KOLIA V1M 6 M 24 AIX ATHLE PROVENCE 16.35
25 00:18:25 853 GIMENEZ CHRISTIAN V2M 2 M 25 ATSCAF ST VICTORET 16.29
26 00:18:38 991 BREUILLARD NICOLAS MIM 1 M 26 9.9
27 00:18:40 670 AUDET YVES V1M 7 M 27 9.9
28 00:18:43 917 NICOLLE ANTOINE SEM 12 M 28 ACB 9.9
29 00:18:44 749 MARTINS REMY CAM 5 M 29 SMUC 9.9
30 00:18:44 979 VULLO THOMAS SEM 13 M 30 MJC PLAN DE CUQUES 9.9
31 00:18:44 728 SANCHEZ ANDRE V1M 8 M 31 BSSA 9.9
32 00:18:52 651 AGREDA PIERRE V2M 3 M 32 15.90
33 00:18:56 669 AUBOU KEVIN SEM 14 M 33 AIX ATHLE PROVENCE 15.85
34 00:19:02 938 ROCA TONY V1M 9 M 34 ATSCAF ST VICTORET 15.76
35 00:19:03 744 LACROIX THIERRY SEM 15 M 35 COURIR AMEYREVIC 15.75
36 00:19:06 996 SALINS MAXIME CAM 6 M 36 AMICALE DES PENNES MIRABEAU 15.71
37 00:19:07 776 BONTE NICOLAS SEM 16 M 37 TRIATHL'AIX 15.69
38 00:19:12 927 POMARES JOSSELIN SEM 17 M 38 VITROLLES SPORT ATHLETISME 15.63
39 00:19:16 789 BUNEL PATRICK V2M 4 M 39 KM 42.195 MARSEILLE 15.57
40 00:19:18 939 ROCHEBLAVE ARNAUD CAM 7 M 40 AIX ATHLE PROVENCE 15.54
41 00:19:25 962 TERAGNOLI BRUNO V1M 10 M 41 VTT DU GARLABAN 15.45
42 00:19:34 679 BARRIELLE YOHANN MIM 2 M 42 MARIGNANE TRIATHLON 15.33
43 00:19:36 1123 BERGEGERE CLEMENT CAM 8 M 43 AIX ATHLE 15.31
44 00:19:40 889 LEMAITRE ANTOINE MIM 3 M 44 AIX ATHLE 15.25
45 00:19:43 814 DENIAU-BOUVET SEAN MIM 4 M 45 15.22
46 00:19:44 846 GAUBERT MARC V1M 11 M 46 SPEEDY CLUB DE PROVENCE 15.20
47 00:19:47 978 VULLO MAXIME SEM 18 M 47 KM 42.195 MARSEILLE 15.16
48 00:19:48 678 BARRA JEAN MIM 5 M 48 MATSSANG RUNNER 15.15
49 00:19:52 1028 LEVREL GABRIEL CAM 9 M 49 9.9
50 00:19:53 1137 JAHN GREGORY V1M 12 M 50 SUN GYM 9.9
51 00:19:56 663 ARQUIER BRUNO V3M 1 M 51 SPEEDY CLUB DE PROVENCE 9.9
52 00:19:59 774 BONNEFOY ERIC V1M 13 M 52 BSSA 9.9
53 00:20:02 791 LEMAITRE LEA SEF 1 F 1 AIX ATHLE PROVENCE 14.98
54 00:20:16 873 IMMORDINO JEAN-CLAUDE V1M 14 M 53 KM 42.195 MARSEILLE 14.80
55 00:20:28 676 BAHAT ABBES V2M 5 M 54 SPEEDY CLUB DE PROVENCE 14.66
56 00:20:31 1113 THOMAS-DIT-DUMONT STEPHANE V1M 15 M 55 ENDURANCE 13 14.62
57 00:20:33 952 SORITA SABRINA SEF 2 F 2 AC MIRAMAS/SALON RUNNING SPORT 14.60
58 00:20:37 951 SOLBES STEPHANE SEM 19 M 56 SMA 14.55
59 00:20:38 980 WEBER CHARLOTTE SEF 3 F 3 FOULEES PELISSANNAISES 14.54
60 00:20:45 825 DUQUESNE STEPHANE V2M 6 M 57 14.46
61 00:20:56 686 BENDIB RUDY SEM 20 M 58 14.33
62 00:20:57 1126 POINT LAURENCE SEF 4 F 4 SMUC 14.32
63 00:20:59 982 ZARCO CORENTIN CAM 10 M 59 CLES GARDANNE 14.30
64 00:21:01 666 ATIA AZIZ V1M 16 M 60 AIX ATHLE PROVENCE 14.27
65 00:21:03 891 LETAIEF SARAH ESF 1 F 5 OM ATHLETISME 14.25
66 00:21:11 667 AUBERT BAPTISTE MIM 6 M 61 14.16
67 00:21:13 837 FIORINO CEDRIC SEM 21 M 62 CSPCG 13 14.14
68 00:21:26 2 COCCI LUCIEN MIM 7 M 63 AMICALE DES PENNES MIRABEAU 14.00
69 00:21:34 1122 LONGO JOE MIM 8 M 64 13.91
70 00:21:35 664 ARQUIER CAROLE V2F 1 F 6 SPEEDY CLUB DE PROVENCE 13.90
71 00:21:41 944 SARKISSIAN MICHAEL SEM 22 M 65 13.84
72 00:21:43 871 IBRE CHRISTIAN V2M 7 M 66 CE STMICROELECTRONICS 13.81
73 00:21:58 929 RAINA SANDRINE V1F 1 F 7 BERRE SPORT ATHLETISME 13.66
74 00:22:02 912 MIGNEMI ROLAND V2M 8 M 67 ROUSSET TRIATHLON 13.62
75 00:22:03 788 BUISSON ANTHONY MIM 9 M 68 ST MARTIN ATHLETISME 13.61
76 00:22:06 852 GIMENEZ CELINE SEF 5 F 8 A NOUS LA VICTOIRE 13.57
77 00:22:09 861 GUZMAN WILLIAM V2M 9 M 69 KM.42.195 MARSEILLE 13.54
78 00:22:12 896 MANCINI ISABELLE V1F 2 F 9 13.51
79 00:22:16 998 SANGLINE MATTHIEU CAM 11 M 70 MATSSANG RUNNERS 13.47
80 00:22:19 893 N:Anonyme 893 P:Anonyme 893 V1M 17 M 71 DURANCE TRIATHLON 13.44
81 00:22:19 882 LAMOURI AZEDINE V2M 10 M 72 ATSCAF 13 ST VICTORET 13.44
82 00:22:21 898 MARCANT JEAN-CLAUDE V2M 11 M 73 SMA 13.42
83 00:22:36 892 MAILLARD GERARD V4M 1 M 74 ATSCAF SAINT VICTORET 13.27
84 00:22:36 701 CHORFIA ZINA V1F 3 F 10 CEF MARATHONIEN 13.27
85 00:22:37 833 FAURE RENE V3M 2 M 75 SPEEDY CLUB DE PROVENCE 13.26
86 00:22:38 950 SMARAGDACHI LAURIE JUF 1 F 11 KMS AS BERRE 13.25
87 00:22:39 738 MANSON MARCEL V3M 3 M 76 AIX ATHLE PROVENCE 13.25
88 00:22:44 772 TAGLIANTE FRANCIS V3M 4 M 77 USCSEPTeMES 13.20
89 00:22:46 878 KOPF ALAIN V2M 12 M 78 13.18
90 00:22:48 805 CORTES FABIEN SEM 23 M 79 13.16
91 00:22:56 1106 JOLLY LEA SEF 6 F 12 AIX ATHLE PROVENCE 9.9
92 00:23:07 699 BITTAU MATTEO MIM 10 M 80 MARIGNANE TRIATHLON 9.9
93 00:23:08 1129 FACHE-MICHEL PATRICK V2M 13 M 81 9.9
94 00:23:09 969 TISSOT JACQUES V4M 2 M 82 SLC MARTIGUES 9.9
95 00:23:09 653 ALLEGRE FRANCINE V2F 2 F 13 CEF MARATHONIEN 9.9
96 00:23:10 727 BIANCO ELODIE SEF 7 F 14 CEF MARATHONIEN 9.9
97 00:23:10 957 SUAREZ CHARLOTTE CAF 1 F 15 AIX ATHLE PROVENCE 9.9
98 00:23:12 654 ALLEGRE MARC V2M 14 M 83 CEF MARATHONIEN 9.9
99 00:23:15 769 MORARD MAURICE V3M 5 M 84 USCSEPTeMES 9.9
100 00:23:21 994 DESNOYERS GUILLAUME MIM 11 M 85 9.9